sensor_id;sensor_type;location;lat;lon;timestamp;pressure;altitude;pressure_sealevel;temperature;humidity
44825;BME280;30542;47.928;2.138;2022-08-24T00:04:57;100430.25;;;24.61;53.13
44825;BME280;30542;47.928;2.138;2022-08-24T00:09:58;100427.56;;;24.61;53.03
44825;BME280;30542;47.928;2.138;2022-08-24T00:14:59;100420.56;;;24.60;52.97
44825;BME280;30542;47.928;2.138;2022-08-24T00:20:00;100425.44;;;24.58;52.99
44825;BME280;30542;47.928;2.138;2022-08-24T00:25:02;100429.22;;;24.57;52.94
44825;BME280;30542;47.928;2.138;2022-08-24T00:30:09;100428.69;;;24.55;52.95
44825;BME280;30542;47.928;2.138;2022-08-24T00:35:10;100425.28;;;24.49;52.77
44825;BME280;30542;47.928;2.138;2022-08-24T00:40:21;100429.31;;;24.52;52.70
44825;BME280;30542;47.928;2.138;2022-08-24T00:45:22;100422.28;;;24.51;52.67
44825;BME280;30542;47.928;2.138;2022-08-24T00:50:46;100429.56;;;24.50;52.54
44825;BME280;30542;47.928;2.138;2022-08-24T00:55:52;100420.69;;;24.50;52.61
44825;BME280;30542;47.928;2.138;2022-08-24T01:00:57;100423.69;;;24.48;52.58
44825;BME280;30542;47.928;2.138;2022-08-24T01:05:58;100421.00;;;24.48;52.47
44825;BME280;30542;47.928;2.138;2022-08-24T01:11:06;100412.94;;;24.48;52.67
44825;BME280;30542;47.928;2.138;2022-08-24T01:16:08;100410.31;;;24.43;52.22
44825;BME280;30542;47.928;2.138;2022-08-24T01:21:15;100412.69;;;24.45;52.31
44825;BME280;30542;47.928;2.138;2022-08-24T01:26:24;100414.06;;;24.42;52.15
44825;BME280;30542;47.928;2.138;2022-08-24T01:31:25;100407.41;;;24.40;52.21
44825;BME280;30542;47.928;2.138;2022-08-24T01:36:35;100414.69;;;24.39;52.03
44825;BME280;30542;47.928;2.138;2022-08-24T01:41:37;100419.28;;;24.39;51.93
44825;BME280;30542;47.928;2.138;2022-08-24T01:46:37;100417.91;;;24.36;52.05
44825;BME280;30542;47.928;2.138;2022-08-24T01:51:38;100407.22;;;24.31;51.87
44825;BME280;30542;47.928;2.138;2022-08-24T01:56:38;100409.03;;;24.36;51.76
44825;BME280;30542;47.928;2.138;2022-08-24T02:01:43;100412.84;;;24.35;51.82
44825;BME280;30542;47.928;2.138;2022-08-24T02:06:45;100411.22;;;24.34;51.88
44825;BME280;30542;47.928;2.138;2022-08-24T02:11:46;100408.28;;;24.30;51.98
44825;BME280;30542;47.928;2.138;2022-08-24T02:16:47;100421.75;;;24.30;51.78
44825;BME280;30542;47.928;2.138;2022-08-24T02:21:48;100401.63;;;24.27;51.92
44825;BME280;30542;47.928;2.138;2022-08-24T02:26:49;100396.09;;;24.19;51.58
44825;BME280;30542;47.928;2.138;2022-08-24T02:31:50;100406.69;;;24.29;51.54
44825;BME280;30542;47.928;2.138;2022-08-24T02:36:51;100413.19;;;24.28;51.61
44825;BME280;30542;47.928;2.138;2022-08-24T02:41:53;100412.38;;;24.27;51.54
44825;BME280;30542;47.928;2.138;2022-08-24T02:46:53;100415.34;;;24.26;51.40
44825;BME280;30542;47.928;2.138;2022-08-24T02:51:53;100413.75;;;24.25;51.39
44825;BME280;30542;47.928;2.138;2022-08-24T02:56:54;100414.31;;;24.22;51.50
44825;BME280;30542;47.928;2.138;2022-08-24T03:01:55;100420.81;;;24.21;51.25
44825;BME280;30542;47.928;2.138;2022-08-24T03:06:55;100421.91;;;24.20;51.25
44825;BME280;30542;47.928;2.138;2022-08-24T03:11:55;100411.13;;;24.20;51.37
44825;BME280;30542;47.928;2.138;2022-08-24T03:16:56;100415.72;;;24.19;51.07
44825;BME280;30542;47.928;2.138;2022-08-24T03:21:56;100416.81;;;24.18;51.08
44825;BME280;30542;47.928;2.138;2022-08-24T03:26:56;100410.91;;;24.16;50.93
44825;BME280;30542;47.928;2.138;2022-08-24T03:31:58;100410.13;;;24.16;50.73
44825;BME280;30542;47.928;2.138;2022-08-24T03:36:58;100405.59;;;24.11;50.60
44825;BME280;30542;47.928;2.138;2022-08-24T03:41:58;100403.41;;;24.13;50.45
44825;BME280;30542;47.928;2.138;2022-08-24T03:46:59;100400.22;;;24.11;50.53
44825;BME280;30542;47.928;2.138;2022-08-24T03:52:00;100397.53;;;24.11;50.50
44825;BME280;30542;47.928;2.138;2022-08-24T03:57:00;100395.41;;;24.08;50.53
44825;BME280;30542;47.928;2.138;2022-08-24T04:02:00;100400.53;;;24.10;50.49
44825;BME280;30542;47.928;2.138;2022-08-24T04:07:01;100393.28;;;24.05;50.36
44825;BME280;30542;47.928;2.138;2022-08-24T04:12:01;100395.19;;;24.04;50.08
44825;BME280;30542;47.928;2.138;2022-08-24T04:17:02;100394.38;;;24.04;50.12
44825;BME280;30542;47.928;2.138;2022-08-24T04:22:03;100405.16;;;24.04;50.06
44825;BME280;30542;47.928;2.138;2022-08-24T04:27:04;100399.28;;;24.02;50.12
44825;BME280;30542;47.928;2.138;2022-08-24T04:32:04;100398.75;;;24.00;49.95
44825;BME280;30542;47.928;2.138;2022-08-24T04:37:04;100386.38;;;23.99;49.94
44825;BME280;30542;47.928;2.138;2022-08-24T04:42:06;100387.50;;;23.98;49.94
44825;BME280;30542;47.928;2.138;2022-08-24T04:47:06;100398.53;;;23.96;49.71
44825;BME280;30542;47.928;2.138;2022-08-24T04:52:07;100397.44;;;23.97;49.53
44825;BME280;30542;47.928;2.138;2022-08-24T04:57:09;100400.72;;;23.94;49.60
44825;BME280;30542;47.928;2.138;2022-08-24T05:02:09;100406.88;;;23.95;49.69
44825;BME280;30542;47.928;2.138;2022-08-24T05:07:10;100398.28;;;23.93;49.65
44825;BME280;30542;47.928;2.138;2022-08-24T05:12:11;100387.03;;;23.91;49.73
44825;BME280;30542;47.928;2.138;2022-08-24T05:17:11;100409.34;;;23.91;49.51
44825;BME280;30542;47.928;2.138;2022-08-24T05:22:12;100400.78;;;23.89;49.52
44825;BME280;30542;47.928;2.138;2022-08-24T05:27:13;100406.16;;;23.89;49.37
44825;BME280;30542;47.928;2.138;2022-08-24T05:32:16;100408.31;;;23.87;49.40
44825;BME280;30542;47.928;2.138;2022-08-24T05:37:17;100413.63;;;23.92;49.62
44825;BME280;30542;47.928;2.138;2022-08-24T05:42:17;100411.97;;;23.96;49.68
44825;BME280;30542;47.928;2.138;2022-08-24T05:47:18;100412.50;;;23.98;50.34
44825;BME280;30542;47.928;2.138;2022-08-24T05:52:20;100414.97;;;23.95;51.45
44825;BME280;30542;47.928;2.138;2022-08-24T05:57:30;100416.56;;;23.96;51.86
44825;BME280;30542;47.928;2.138;2022-08-24T06:02:32;100417.94;;;23.93;54.27
44825;BME280;30542;47.928;2.138;2022-08-24T06:07:34;100421.03;;;23.81;52.03
44825;BME280;30542;47.928;2.138;2022-08-24T06:17:35;100421.78;;;23.34;52.71
44825;BME280;30542;47.928;2.138;2022-08-24T06:22:36;100414.63;;;23.24;53.68
44825;BME280;30542;47.928;2.138;2022-08-24T06:27:37;100422.34;;;23.31;54.73
44825;BME280;30542;47.928;2.138;2022-08-24T06:32:38;100421.81;;;23.29;55.20
44825;BME280;30542;47.928;2.138;2022-08-24T06:37:38;100422.84;;;23.33;55.61
44825;BME280;30542;47.928;2.138;2022-08-24T06:42:39;100424.31;;;23.49;55.70
44825;BME280;30542;47.928;2.138;2022-08-24T06:47:40;100423.34;;;23.69;55.38
44825;BME280;30542;47.928;2.138;2022-08-24T06:52:41;100418.22;;;23.68;55.92
44825;BME280;30542;47.928;2.138;2022-08-24T06:57:41;100423.03;;;23.71;56.44
44825;BME280;30542;47.928;2.138;2022-08-24T07:02:42;100423.50;;;23.78;56.12
44825;BME280;30542;47.928;2.138;2022-08-24T07:07:42;100422.56;;;23.88;60.36
44825;BME280;30542;47.928;2.138;2022-08-24T07:12:43;100423.91;;;23.90;59.60
44825;BME280;30542;47.928;2.138;2022-08-24T07:17:44;100425.66;;;24.00;58.91
44825;BME280;30542;47.928;2.138;2022-08-24T07:22:45;100431.91;;;23.95;58.61
44825;BME280;30542;47.928;2.138;2022-08-24T07:27:45;100438.59;;;23.98;58.17
44825;BME280;30542;47.928;2.138;2022-08-24T07:32:46;100434.53;;;24.00;57.57
44825;BME280;30542;47.928;2.138;2022-08-24T07:37:46;100440.44;;;24.02;57.35
44825;BME280;30542;47.928;2.138;2022-08-24T07:42:51;100437.38;;;24.09;56.74
44825;BME280;30542;47.928;2.138;2022-08-24T07:47:52;100438.41;;;24.13;56.80
44825;BME280;30542;47.928;2.138;2022-08-24T07:52:53;100446.19;;;24.15;56.71
44825;BME280;30542;47.928;2.138;2022-08-24T07:57:54;100458.50;;;24.21;56.15
44825;BME280;30542;47.928;2.138;2022-08-24T08:02:54;100459.34;;;24.16;56.28
44825;BME280;30542;47.928;2.138;2022-08-24T08:07:55;100448.09;;;24.14;55.97
44825;BME280;30542;47.928;2.138;2022-08-24T08:12:56;100452.09;;;24.17;56.07
44825;BME280;30542;47.928;2.138;2022-08-24T08:17:57;100445.03;;;24.21;55.67
44825;BME280;30542;47.928;2.138;2022-08-24T08:22:57;100448.25;;;24.23;55.52
44825;BME280;30542;47.928;2.138;2022-08-24T08:28:17;100451.44;;;24.25;55.32
44825;BME280;30542;47.928;2.138;2022-08-24T08:33:18;100456.81;;;24.25;54.59
44825;BME280;30542;47.928;2.138;2022-08-24T08:38:18;100457.28;;;24.32;53.79
44825;BME280;30542;47.928;2.138;2022-08-24T08:43:40;100447.06;;;24.29;53.49
44825;BME280;30542;47.928;2.138;2022-08-24T09:10:13;100432.88;;;24.47;50.50
44825;BME280;30542;47.928;2.138;2022-08-24T09:31:38;100434.44;;;24.67;48.31
44825;BME280;30542;47.928;2.138;2022-08-24T09:37:00;100436.56;;;24.70;48.35
44825;BME280;30542;47.928;2.138;2022-08-24T09:58:12;100427.78;;;24.65;48.42
44825;BME280;30542;47.928;2.138;2022-08-24T10:14:12;100413.06;;;24.76;47.62
44825;BME280;30542;47.928;2.138;2022-08-24T10:19:39;100406.47;;;24.82;47.21
44825;BME280;30542;47.928;2.138;2022-08-24T10:35:17;100396.13;;;24.89;47.09
44825;BME280;30542;47.928;2.138;2022-08-24T10:45:41;100383.38;;;24.95;46.01
44825;BME280;30542;47.928;2.138;2022-08-24T10:56:18;100384.81;;;25.06;45.82
44825;BME280;30542;47.928;2.138;2022-08-24T11:01:26;100376.50;;;25.02;46.15
44825;BME280;30542;47.928;2.138;2022-08-24T11:06:40;100365.38;;;25.09;45.11
44825;BME280;30542;47.928;2.138;2022-08-24T11:11:44;100354.94;;;25.02;45.69
44825;BME280;30542;47.928;2.138;2022-08-24T11:16:46;100352.84;;;24.99;45.90
44825;BME280;30542;47.928;2.138;2022-08-24T11:21:49;100349.88;;;25.01;45.90
44825;BME280;30542;47.928;2.138;2022-08-24T11:26:51;100340.47;;;24.98;46.24
44825;BME280;30542;47.928;2.138;2022-08-24T11:31:53;100331.28;;;24.99;45.70
44825;BME280;30542;47.928;2.138;2022-08-24T11:36:53;100326.63;;;25.05;45.94
44825;BME280;30542;47.928;2.138;2022-08-24T11:53:07;100324.72;;;25.05;46.24
44825;BME280;30542;47.928;2.138;2022-08-24T11:58:13;100313.94;;;25.05;46.38
44825;BME280;30542;47.928;2.138;2022-08-24T12:14:01;100310.50;;;25.00;46.92
44825;BME280;30542;47.928;2.138;2022-08-24T12:19:26;100313.94;;;25.05;47.15
44825;BME280;30542;47.928;2.138;2022-08-24T12:24:51;100309.03;;;25.08;47.07
44825;BME280;30542;47.928;2.138;2022-08-24T12:30:02;100298.94;;;24.99;47.04
44825;BME280;30542;47.928;2.138;2022-08-24T12:35:18;100302.16;;;25.01;47.47
44825;BME280;30542;47.928;2.138;2022-08-24T12:40:26;100289.16;;;25.03;47.86
44825;BME280;30542;47.928;2.138;2022-08-24T12:45:28;100289.19;;;25.17;47.47
44825;BME280;30542;47.928;2.138;2022-08-24T12:50:37;100279.38;;;25.08;47.54
44825;BME280;30542;47.928;2.138;2022-08-24T13:01:06;100275.03;;;25.12;47.94
44825;BME280;30542;47.928;2.138;2022-08-24T13:06:17;100275.03;;;25.12;47.69
44825;BME280;30542;47.928;2.138;2022-08-24T13:21:49;100259.25;;;25.19;47.79
44825;BME280;30542;47.928;2.138;2022-08-24T13:26:50;100260.84;;;25.20;47.67
44825;BME280;30542;47.928;2.138;2022-08-24T13:31:52;100237.88;;;25.09;48.07
44825;BME280;30542;47.928;2.138;2022-08-24T13:37:11;100256.66;;;25.14;47.99
44825;BME280;30542;47.928;2.138;2022-08-24T14:24:43;100191.56;;;25.20;47.18
44825;BME280;30542;47.928;2.138;2022-08-24T14:29:44;100187.16;;;25.24;47.52
44825;BME280;30542;47.928;2.138;2022-08-24T14:35:27;100190.38;;;25.26;47.34
44825;BME280;30542;47.928;2.138;2022-08-24T14:41:17;100195.31;;;25.33;47.37
44825;BME280;30542;47.928;2.138;2022-08-24T14:46:09;100180.06;;;25.28;47.33
44825;BME280;30542;47.928;2.138;2022-08-24T15:07:31;100166.00;;;25.32;46.92
44825;BME280;30542;47.928;2.138;2022-08-24T15:18:07;100170.13;;;25.51;44.95
44825;BME280;30542;47.928;2.138;2022-08-24T15:23:24;100161.91;;;25.57;44.90
44825;BME280;30542;47.928;2.138;2022-08-24T15:28:30;100157.25;;;25.48;44.88
44825;BME280;30542;47.928;2.138;2022-08-24T15:33:33;100159.16;;;25.48;44.87
44825;BME280;30542;47.928;2.138;2022-08-24T15:38:37;100152.03;;;25.52;45.20
44825;BME280;30542;47.928;2.138;2022-08-24T15:44:08;100158.22;;;25.52;44.89
44825;BME280;30542;47.928;2.138;2022-08-24T15:54:36;100151.06;;;25.70;43.85
44825;BME280;30542;47.928;2.138;2022-08-24T16:04:47;100140.78;;;25.72;42.24
44825;BME280;30542;47.928;2.138;2022-08-24T16:09:59;100145.75;;;25.79;41.57
44825;BME280;30542;47.928;2.138;2022-08-24T16:20:28;100159.56;;;25.77;42.04
44825;BME280;30542;47.928;2.138;2022-08-24T16:25:31;100157.25;;;25.71;42.86
44825;BME280;30542;47.928;2.138;2022-08-24T16:35:42;100143.91;;;25.66;43.96
44825;BME280;30542;47.928;2.138;2022-08-24T16:40:42;100145.06;;;25.73;43.50
44825;BME280;30542;47.928;2.138;2022-08-24T16:45:43;100142.13;;;25.84;42.24
44825;BME280;30542;47.928;2.138;2022-08-24T16:50:43;100144.78;;;25.97;40.76
44825;BME280;30542;47.928;2.138;2022-08-24T16:55:44;100146.91;;;26.09;39.39
44825;BME280;30542;47.928;2.138;2022-08-24T17:00:44;100138.06;;;26.17;39.55
44825;BME280;30542;47.928;2.138;2022-08-24T17:05:45;100133.66;;;26.21;40.52
44825;BME280;30542;47.928;2.138;2022-08-24T17:10:45;100140.16;;;26.29;40.03
44825;BME280;30542;47.928;2.138;2022-08-24T17:15:46;100141.78;;;26.30;39.28
44825;BME280;30542;47.928;2.138;2022-08-24T17:20:47;100141.16;;;26.33;39.09
44825;BME280;30542;47.928;2.138;2022-08-24T17:25:47;100140.66;;;26.31;38.98
44825;BME280;30542;47.928;2.138;2022-08-24T17:30:48;100141.78;;;26.30;39.28
44825;BME280;30542;47.928;2.138;2022-08-24T17:35:50;100137.34;;;26.34;38.87
44825;BME280;30542;47.928;2.138;2022-08-24T17:40:53;100142.56;;;26.31;39.73
44825;BME280;30542;47.928;2.138;2022-08-24T17:45:53;100137.78;;;26.27;39.67
44825;BME280;30542;47.928;2.138;2022-08-24T17:50:54;100143.97;;;26.28;39.70
44825;BME280;30542;47.928;2.138;2022-08-24T17:55:54;100140.81;;;26.26;39.78
44825;BME280;30542;47.928;2.138;2022-08-24T18:00:54;100141.59;;;26.26;39.96
44825;BME280;30542;47.928;2.138;2022-08-24T18:05:55;100147.81;;;26.27;39.84
44825;BME280;30542;47.928;2.138;2022-08-24T18:10:55;100149.53;;;26.23;39.79
44825;BME280;30542;47.928;2.138;2022-08-24T18:15:56;100143.47;;;26.17;40.20
44825;BME280;30542;47.928;2.138;2022-08-24T18:20:56;100149.16;;;26.16;40.45
44825;BME280;30542;47.928;2.138;2022-08-24T18:25:57;100156.00;;;26.13;40.73
44825;BME280;30542;47.928;2.138;2022-08-24T18:30:57;100154.22;;;26.09;41.23
44825;BME280;30542;47.928;2.138;2022-08-24T18:35:58;100153.53;;;26.03;41.44
44825;BME280;30542;47.928;2.138;2022-08-24T18:40:59;100151.28;;;25.96;41.63
44825;BME280;30542;47.928;2.138;2022-08-24T18:46:00;100167.97;;;25.98;41.99
44825;BME280;30542;47.928;2.138;2022-08-24T18:51:01;100163.97;;;25.96;42.40
44825;BME280;30542;47.928;2.138;2022-08-24T18:56:02;100164.28;;;25.94;42.73
44825;BME280;30542;47.928;2.138;2022-08-24T19:01:03;100170.00;;;25.93;42.66
44825;BME280;30542;47.928;2.138;2022-08-24T19:06:04;100176.47;;;25.92;42.86
44825;BME280;30542;47.928;2.138;2022-08-24T19:11:06;100188.69;;;25.89;43.28
44825;BME280;30542;47.928;2.138;2022-08-24T19:16:06;100183.00;;;25.91;43.64
44825;BME280;30542;47.928;2.138;2022-08-24T19:21:07;100186.78;;;25.90;43.65
44825;BME280;30542;47.928;2.138;2022-08-24T19:26:07;100190.59;;;25.89;43.54
44825;BME280;30542;47.928;2.138;2022-08-24T19:31:10;100203.59;;;25.87;43.61
44825;BME280;30542;47.928;2.138;2022-08-24T19:36:13;100211.22;;;25.85;43.68
44825;BME280;30542;47.928;2.138;2022-08-24T19:41:13;100203.41;;;25.83;44.17
44825;BME280;30542;47.928;2.138;2022-08-24T19:46:15;100207.72;;;25.84;44.60
44825;BME280;30542;47.928;2.138;2022-08-24T19:51:15;100210.09;;;25.86;44.28
44825;BME280;30542;47.928;2.138;2022-08-24T19:56:17;100205.81;;;25.85;45.61
44825;BME280;30542;47.928;2.138;2022-08-24T20:01:20;100208.78;;;25.83;46.27
44825;BME280;30542;47.928;2.138;2022-08-24T20:06:22;100209.44;;;25.80;46.33
44825;BME280;30542;47.928;2.138;2022-08-24T20:11:23;100211.03;;;25.81;46.42
44825;BME280;30542;47.928;2.138;2022-08-24T20:16:26;100213.72;;;25.81;46.94
44825;BME280;30542;47.928;2.138;2022-08-24T20:21:27;100219.59;;;25.83;46.98
44825;BME280;30542;47.928;2.138;2022-08-24T20:26:30;100229.41;;;25.79;46.89
44825;BME280;30542;47.928;2.138;2022-08-24T20:31:34;100217.03;;;25.78;46.89
44825;BME280;30542;47.928;2.138;2022-08-24T20:36:37;100210.31;;;25.75;46.90
44825;BME280;30542;47.928;2.138;2022-08-24T20:41:39;100216.00;;;25.74;47.34
44825;BME280;30542;47.928;2.138;2022-08-24T20:46:39;100222.00;;;25.71;47.23
44825;BME280;30542;47.928;2.138;2022-08-24T20:51:40;100217.22;;;25.68;47.40
44825;BME280;30542;47.928;2.138;2022-08-24T20:56:41;100223.22;;;25.65;47.33
44825;BME280;30542;47.928;2.138;2022-08-24T21:01:42;100207.84;;;25.65;46.92
44825;BME280;30542;47.928;2.138;2022-08-24T21:06:43;100209.22;;;25.63;47.05
44825;BME280;30542;47.928;2.138;2022-08-24T21:11:43;100206.06;;;25.61;46.79
44825;BME280;30542;47.928;2.138;2022-08-24T21:16:45;100202.06;;;25.58;47.10
44825;BME280;30542;47.928;2.138;2022-08-24T21:21:46;100214.75;;;25.58;46.93
44825;BME280;30542;47.928;2.138;2022-08-24T21:26:47;100214.75;;;25.58;46.73
44825;BME280;30542;47.928;2.138;2022-08-24T21:31:48;100215.06;;;25.56;46.82
44825;BME280;30542;47.928;2.138;2022-08-24T21:37:13;100207.25;;;25.54;46.58
44825;BME280;30542;47.928;2.138;2022-08-24T21:42:14;100215.66;;;25.53;46.42
44825;BME280;30542;47.928;2.138;2022-08-24T21:47:16;100214.34;;;25.50;46.48
44825;BME280;30542;47.928;2.138;2022-08-24T21:52:17;100210.06;;;25.49;46.65
44825;BME280;30542;47.928;2.138;2022-08-24T21:57:17;100203.88;;;25.49;46.33
44825;BME280;30542;47.928;2.138;2022-08-24T22:02:17;100208.81;;;25.47;46.43
44825;BME280;30542;47.928;2.138;2022-08-24T22:07:19;100214.00;;;25.43;46.55
44825;BME280;30542;47.928;2.138;2022-08-24T22:12:19;100210.00;;;25.41;46.38
44825;BME280;30542;47.928;2.138;2022-08-24T22:17:20;100215.09;;;25.42;46.07
44825;BME280;30542;47.928;2.138;2022-08-24T22:22:20;100203.09;;;25.48;46.04
44825;BME280;30542;47.928;2.138;2022-08-24T22:27:21;100210.69;;;25.46;46.08
44825;BME280;30542;47.928;2.138;2022-08-24T22:32:22;100211.78;;;25.45;45.92
44825;BME280;30542;47.928;2.138;2022-08-24T22:37:23;100219.38;;;25.43;45.83
44825;BME280;30542;47.928;2.138;2022-08-24T22:42:23;100222.09;;;25.43;45.96
44825;BME280;30542;47.928;2.138;2022-08-24T22:47:24;100228.06;;;25.40;45.92
44825;BME280;30542;47.928;2.138;2022-08-24T22:52:25;100230.78;;;25.40;45.88
44825;BME280;30542;47.928;2.138;2022-08-24T22:57:25;100238.38;;;25.38;45.95
44825;BME280;30542;47.928;2.138;2022-08-24T23:02:26;100238.06;;;25.40;45.79
44825;BME280;30542;47.928;2.138;2022-08-24T23:07:26;100242.66;;;25.39;46.01
44825;BME280;30542;47.928;2.138;2022-08-24T23:12:27;100237.06;;;25.36;45.91
44825;BME280;30542;47.928;2.138;2022-08-24T23:17:27;100243.25;;;25.36;45.82
44825;BME280;30542;47.928;2.138;2022-08-24T23:22:30;100241.69;;;25.35;45.54
44825;BME280;30542;47.928;2.138;2022-08-24T23:27:31;100235.19;;;25.36;45.41
44825;BME280;30542;47.928;2.138;2022-08-24T23:32:31;100236.56;;;25.34;45.32
44825;BME280;30542;47.928;2.138;2022-08-24T23:37:32;100232.41;;;25.27;45.62
44825;BME280;30542;47.928;2.138;2022-08-24T23:42:33;100227.47;;;25.29;45.37
44825;BME280;30542;47.928;2.138;2022-08-24T23:47:33;100238.28;;;25.29;45.31
44825;BME280;30542;47.928;2.138;2022-08-24T23:52:34;100228.59;;;25.28;45.35
44825;BME280;30542;47.928;2.138;2022-08-24T23:57:36;100227.59;;;25.24;45.35
